Humberborg — PHFC — position and weather

sailwx.info

Track history (hours):
 
Tides and Currents Weather Stations Pressure Air Temp Water Temp Dewpoint Dewpoint Depression Visibility Wind Speed Wind Dir Waves Ship Positions

Humberborg

Last reported at 2014-Sep-11 00:11 UTC. Time now 2014-Sep-19 19:59 UTC.
Position N 57°25' E 017°47'.
Warning: this ship's position is 8 days out of date.

Length 114 m; draft 6.1 m.

Type: Cargo ship. MMSI: 246012000.

Date/timePositionNaut miles runAvg speedWind from/ knotsBaromVisibWave heightAir tempDewpointWater temp
2014-Sep-11 00:11N 57°25' E 017°47'710.7
2014-Sep-10 23:33N 57°18' E 017°43'1111.0
2014-Sep-10 22:33N 57°08' E 017°35'1110.6
2014-Sep-10 21:30N 56°58' E 017°27'1310.7
2014-Sep-10 20:15N 56°46' E 017°18'10010.3
2014-Sep-10 10:33N 55°34' E 015°13'1110.8
2014-Sep-10 09:33N 55°28' E 014°56'1110.8
2014-Sep-10 08:33N 55°23' E 014°40'1110.8
2014-Sep-10 07:33N 55°15' E 014°27'10 9.9
2014-Sep-10 06:33N 55°11' E 014°11'1111.0
2014-Sep-10 05:33N 55°11' E 013°52'1110.7
2014-Sep-10 04:33N 55°12' E 013°34'1110.6
2014-Sep-10 03:33N 55°13' E 013°15'1110.8
2014-Sep-10 02:33N 55°14' E 012°56'1110.8
2014-Sep-10 01:33N 55°18' E 012°38'1111.0
2014-Sep-10 00:33N 55°29' E 012°41'1111.4
2014-Sep-09 23:33N 55°40' E 012°41'1111.2
2014-Sep-09 22:33N 55°52' E 012°41'1111.2
2014-Sep-09 21:33N 56°03' E 012°39'1211.6
2014-Sep-09 20:33N 56°10' E 012°22'1110.8
2014-Sep-09 19:33N 56°16' E 012°07'1510.6
2014-Sep-09 18:06N 56°31' E 011°58'611.1
2014-Sep-09 17:33N 56°37' E 011°56'1111.4
2014-Sep-09 16:33N 56°48' E 011°51'1111.3
2014-Sep-09 15:33N 56°59' E 011°44'1111.1
2014-Sep-09 14:32N 57°09' E 011°37'1010.6
2014-Sep-09 13:33N 57°19' E 011°30'1010.3
2014-Sep-09 12:33N 57°29' E 011°23'1010.4
2014-Sep-09 11:33N 57°36' E 011°09'1110.8
2014-Sep-09 10:33N 57°43' E 010°54'1110.7
2014-Sep-09 09:33N 57°47' E 010°35'1212.5
2014-Sep-09 08:33N 57°46' E 010°12'41410.6
2014-Sep-07 17:33N 58°42' W 002°48'1613.6
2014-Sep-07 16:24N 58°43' W 003°18'8 8.9
2014-Sep-07 15:33N 58°43' W 003°33'8 8.5
2014-Sep-07 14:33N 58°44' W 003°49'8 8.4
2014-Sep-07 13:33N 58°42' W 004°04'8 7.5
2014-Sep-07 12:33N 58°43' W 004°19'11 8.7
2014-Sep-07 11:16N 58°41' W 004°40'185 8.9
2014-Sep-06 14:24N 55°51' W 006°57'910.3
2014-Sep-06 13:33N 55°44' W 006°48'1211.7
2014-Sep-06 12:33N 55°36' W 006°33'1312.6
2014-Sep-06 11:33N 55°27' W 006°16'1211.8
2014-Sep-06 10:33N 55°22' W 005°58'1312.6
2014-Sep-06 09:33N 55°11' W 005°47'2110.5
2014-Sep-06 07:33N 54°51' W 005°32'9 9.2
2014-Sep-06 06:33N 54°43' W 005°26'9 8.7
2014-Sep-06 05:33N 54°35' W 005°22'9 9.3
2014-Sep-06 04:33N 54°25' W 005°20'1010.1
2014-Sep-06 03:33N 54°16' W 005°25'62 1.7
2014-Sep-04 15:21N 53°21' W 006°13'62 4.2
2014-Sep-04 00:33N 54°16' W 005°25'10 9.8
2014-Sep-03 23:33N 54°26' W 005°20'10 9.8
2014-Sep-03 22:33N 54°35' W 005°23'9 9.1
2014-Sep-03 21:33N 54°43' W 005°29'1010.0
2014-Sep-03 20:34N 54°41' W 005°46'6 5.7
2014-Sep-03 19:27N 54°37' W 005°54'0 0.0
2014-Sep-03 17:09N 54°37' W 005°54'0 0.0
2014-Sep-03 16:33N 54°37' W 005°54'0 0.0
2014-Sep-03 15:33N 54°37' W 005°54'0 0.0
2014-Sep-03 14:27N 54°37' W 005°54'0 0.0
2014-Sep-03 13:27N 54°37' W 005°54'0 0.0
2014-Sep-03 10:12N 54°37' W 005°54'0 0.0
2014-Sep-03 08:18N 54°37' W 005°54'0 0.0
2014-Sep-03 07:24N 54°37' W 005°54'0 0.0
2014-Sep-02 22:24N 54°37' W 005°54'0 0.0
2014-Sep-02 21:24N 54°37' W 005°54'0 0.0
2014-Sep-02 20:09N 54°37' W 005°54'0 0.0
2014-Sep-02 19:33N 54°37' W 005°54'0 0.0
2014-Sep-02 18:18N 54°37' W 005°54'0 0.0
2014-Sep-02 06:17N 54°37' W 005°54'0 0.0
2014-Sep-02 05:29N 54°37' W 005°54'0 0.0
2014-Sep-01 22:25N 54°37' W 005°54'4 4.5
2014-Sep-01 21:33N 54°40' W 005°50'7 6.7
2014-Sep-01 20:33N 54°42' W 005°39'0 0.1
2014-Sep-01 19:33N 54°42' W 005°39'0 0.1
2014-Sep-01 18:33N 54°42' W 005°39'0 0.0
2014-Sep-01 17:33N 54°42' W 005°39'0 0.0
2014-Sep-01 16:33N 54°42' W 005°39'0 0.0
2014-Sep-01 15:33N 54°42' W 005°39'0 0.0
2014-Sep-01 14:33N 54°42' W 005°39'0 0.0
2014-Sep-01 13:33N 54°42' W 005°39'0 0.0
2014-Sep-01 12:33N 54°42' W 005°39'0 0.0
2014-Sep-01 11:33N 54°42' W 005°39'0 0.0
2014-Sep-01 10:33N 54°42' W 005°39'0 0.0
2014-Sep-01 09:33N 54°42' W 005°39'0 0.0
2014-Sep-01 08:33N 54°42' W 005°39'0 0.0
2014-Sep-01 07:33N 54°42' W 005°38'0 0.0
2014-Sep-01 06:33N 54°42' W 005°38'0 0.1
2014-Sep-01 05:33N 54°42' W 005°39'0 0.1
2014-Sep-01 04:33N 54°42' W 005°39'0 0.1
2014-Sep-01 03:33N 54°42' W 005°39'0 0.1
2014-Sep-01 02:33N 54°42' W 005°39'0 0.0
2014-Sep-01 01:33N 54°42' W 005°39'0 0.0
2014-Sep-01 00:33N 54°42' W 005°39'  
Track history (hours):
 
Tides and Currents Weather Stations Pressure Air Temp Water Temp Dewpoint Dewpoint Depression Visibility Wind Speed Wind Dir Waves Ship Positions

Humberborg

Last reported at 2014-Sep-11 00:11 UTC. Time now 2014-Sep-19 19:59 UTC.
Position N 57°25' E 017°47'.
Warning: this ship's position is 8 days out of date.

Length 114 m; draft 6.1 m.

Type: Cargo ship. MMSI: 246012000.

Date/timePositionNaut miles runAvg speedWind from/ knotsBaromVisibWave heightAir tempDewpointWater temp
2014-Sep-11 00:11N 57°25' E 017°47'710.7
2014-Sep-10 23:33N 57°18' E 017°43'1111.0
2014-Sep-10 22:33N 57°08' E 017°35'1110.6
2014-Sep-10 21:30N 56°58' E 017°27'1310.7
2014-Sep-10 20:15N 56°46' E 017°18'10010.3
2014-Sep-10 10:33N 55°34' E 015°13'1110.8
2014-Sep-10 09:33N 55°28' E 014°56'1110.8
2014-Sep-10 08:33N 55°23' E 014°40'1110.8
2014-Sep-10 07:33N 55°15' E 014°27'10 9.9
2014-Sep-10 06:33N 55°11' E 014°11'1111.0
2014-Sep-10 05:33N 55°11' E 013°52'1110.7
2014-Sep-10 04:33N 55°12' E 013°34'1110.6
2014-Sep-10 03:33N 55°13' E 013°15'1110.8
2014-Sep-10 02:33N 55°14' E 012°56'1110.8
2014-Sep-10 01:33N 55°18' E 012°38'1111.0
2014-Sep-10 00:33N 55°29' E 012°41'1111.4
2014-Sep-09 23:33N 55°40' E 012°41'1111.2
2014-Sep-09 22:33N 55°52' E 012°41'1111.2
2014-Sep-09 21:33N 56°03' E 012°39'1211.6
2014-Sep-09 20:33N 56°10' E 012°22'1110.8
2014-Sep-09 19:33N 56°16' E 012°07'1510.6
2014-Sep-09 18:06N 56°31' E 011°58'611.1
2014-Sep-09 17:33N 56°37' E 011°56'1111.4
2014-Sep-09 16:33N 56°48' E 011°51'1111.3
2014-Sep-09 15:33N 56°59' E 011°44'1111.1
2014-Sep-09 14:32N 57°09' E 011°37'1010.6
2014-Sep-09 13:33N 57°19' E 011°30'1010.3
2014-Sep-09 12:33N 57°29' E 011°23'1010.4
2014-Sep-09 11:33N 57°36' E 011°09'1110.8
2014-Sep-09 10:33N 57°43' E 010°54'1110.7
2014-Sep-09 09:33N 57°47' E 010°35'1212.5
2014-Sep-09 08:33N 57°46' E 010°12'41410.6
2014-Sep-07 17:33N 58°42' W 002°48'1613.6
2014-Sep-07 16:24N 58°43' W 003°18'8 8.9
2014-Sep-07 15:33N 58°43' W 003°33'8 8.5
2014-Sep-07 14:33N 58°44' W 003°49'8 8.4
2014-Sep-07 13:33N 58°42' W 004°04'8 7.5
2014-Sep-07 12:33N 58°43' W 004°19'11 8.7
2014-Sep-07 11:16N 58°41' W 004°40'185 8.9
2014-Sep-06 14:24N 55°51' W 006°57'910.3
2014-Sep-06 13:33N 55°44' W 006°48'1211.7
2014-Sep-06 12:33N 55°36' W 006°33'1312.6
2014-Sep-06 11:33N 55°27' W 006°16'1211.8
2014-Sep-06 10:33N 55°22' W 005°58'1312.6
2014-Sep-06 09:33N 55°11' W 005°47'2110.5
2014-Sep-06 07:33N 54°51' W 005°32'9 9.2
2014-Sep-06 06:33N 54°43' W 005°26'9 8.7
2014-Sep-06 05:33N 54°35' W 005°22'9 9.3
2014-Sep-06 04:33N 54°25' W 005°20'1010.1
2014-Sep-06 03:33N 54°16' W 005°25'62 1.7
2014-Sep-04 15:21N 53°21' W 006°13'62 4.2
2014-Sep-04 00:33N 54°16' W 005°25'10 9.8
2014-Sep-03 23:33N 54°26' W 005°20'10 9.8
2014-Sep-03 22:33N 54°35' W 005°23'9 9.1
2014-Sep-03 21:33N 54°43' W 005°29'1010.0
2014-Sep-03 20:34N 54°41' W 005°46'6 5.7
2014-Sep-03 19:27N 54°37' W 005°54'0 0.0
2014-Sep-03 17:09N 54°37' W 005°54'0 0.0
2014-Sep-03 16:33N 54°37' W 005°54'0 0.0
2014-Sep-03 15:33N 54°37' W 005°54'0 0.0
2014-Sep-03 14:27N 54°37' W 005°54'0 0.0
2014-Sep-03 13:27N 54°37' W 005°54'0 0.0
2014-Sep-03 10:12N 54°37' W 005°54'0 0.0
2014-Sep-03 08:18N 54°37' W 005°54'0 0.0
2014-Sep-03 07:24N 54°37' W 005°54'0 0.0
2014-Sep-02 22:24N 54°37' W 005°54'0 0.0
2014-Sep-02 21:24N 54°37' W 005°54'0 0.0
2014-Sep-02 20:09N 54°37' W 005°54'0 0.0
2014-Sep-02 19:33N 54°37' W 005°54'0 0.0
2014-Sep-02 18:18N 54°37' W 005°54'0 0.0
2014-Sep-02 06:17N 54°37' W 005°54'0 0.0
2014-Sep-02 05:29N 54°37' W 005°54'0 0.0
2014-Sep-01 22:25N 54°37' W 005°54'4 4.5
2014-Sep-01 21:33N 54°40' W 005°50'7 6.7
2014-Sep-01 20:33N 54°42' W 005°39'0 0.1
2014-Sep-01 19:33N 54°42' W 005°39'0 0.1
2014-Sep-01 18:33N 54°42' W 005°39'0 0.0
2014-Sep-01 17:33N 54°42' W 005°39'0 0.0
2014-Sep-01 16:33N 54°42' W 005°39'0 0.0
2014-Sep-01 15:33N 54°42' W 005°39'0 0.0
2014-Sep-01 14:33N 54°42' W 005°39'0 0.0
2014-Sep-01 13:33N 54°42' W 005°39'0 0.0
2014-Sep-01 12:33N 54°42' W 005°39'0 0.0
2014-Sep-01 11:33N 54°42' W 005°39'0 0.0
2014-Sep-01 10:33N 54°42' W 005°39'0 0.0
2014-Sep-01 09:33N 54°42' W 005°39'0 0.0
2014-Sep-01 08:33N 54°42' W 005°39'0 0.0
2014-Sep-01 07:33N 54°42' W 005°38'0 0.0
2014-Sep-01 06:33N 54°42' W 005°38'0 0.1
2014-Sep-01 05:33N 54°42' W 005°39'0 0.1
2014-Sep-01 04:33N 54°42' W 005°39'0 0.1
2014-Sep-01 03:33N 54°42' W 005°39'0 0.1
2014-Sep-01 02:33N 54°42' W 005°39'0 0.0
2014-Sep-01 01:33N 54°42' W 005°39'0 0.0
2014-Sep-01 00:33N 54°42' W 005°39'  

Dump ship's entire track history